createdAt,value
2018-08-18T00:00:13.662Z,87.80
2018-08-18T00:02:42.166Z,87.70
2018-08-18T00:05:11.547Z,87.70
2018-08-18T00:07:40.047Z,87.80
2018-08-18T00:10:09.907Z,87.70
2018-08-18T00:12:38.635Z,88.20
2018-08-18T00:15:08.178Z,88.00
2018-08-18T00:17:37.614Z,88.10
2018-08-18T00:20:11.468Z,88.80
2018-08-18T00:22:39.890Z,88.80
2018-08-18T00:25:08.334Z,89.10
2018-08-18T00:27:36.723Z,89.10
2018-08-18T00:30:39.108Z,89.50
2018-08-18T00:33:07.522Z,89.70
2018-08-18T00:35:35.965Z,90.30
2018-08-18T00:38:04.339Z,88.90
2018-08-18T00:40:32.691Z,88.60
2018-08-18T00:43:01.151Z,88.50
2018-08-18T00:45:29.547Z,88.70
2018-08-18T00:47:57.983Z,89.50
2018-08-18T00:50:37.649Z,90.60
2018-08-18T00:53:07.753Z,91.20
2018-08-18T00:55:36.591Z,91.00
2018-08-18T00:58:05.788Z,90.60
2018-08-18T01:00:34.551Z,89.90
2018-08-18T01:03:03.030Z,89.30
2018-08-18T01:05:31.439Z,89.10
2018-08-18T01:07:59.945Z,89.10
2018-08-18T01:10:28.443Z,89.90
2018-08-18T01:12:56.890Z,91.20
2018-08-18T01:15:27.253Z,91.50
2018-08-18T01:17:56.458Z,92.20
2018-08-18T01:20:24.975Z,92.00
2018-08-18T01:23:00.922Z,91.00
2018-08-18T01:25:30.243Z,90.20
2018-08-18T01:27:59.583Z,90.50
2018-08-18T01:30:27.983Z,91.30
2018-08-18T01:32:56.834Z,90.70
2018-08-18T01:35:25.593Z,91.10
2018-08-18T01:37:53.950Z,91.70
2018-08-18T01:40:22.343Z,91.40
2018-08-18T01:42:50.711Z,91.00
2018-08-18T01:45:19.175Z,91.40
2018-08-18T01:47:47.571Z,91.20
2018-08-18T01:50:19.330Z,91.70
2018-08-18T01:52:47.708Z,93.10
2018-08-18T01:55:16.202Z,93.20
2018-08-18T01:57:44.874Z,93.30
2018-08-18T02:00:23.035Z,92.60
2018-08-18T02:02:51.420Z,92.30
2018-08-18T02:05:19.991Z,92.40
2018-08-18T02:07:48.363Z,92.40
2018-08-18T02:10:16.754Z,92.20
2018-08-18T02:12:56.463Z,92.20
2018-08-18T02:15:24.847Z,92.20
2018-08-18T02:17:53.238Z,91.90
2018-08-18T02:20:21.703Z,91.50
2018-08-18T02:22:50.074Z,91.70
2018-08-18T02:25:21.618Z,91.70
2018-08-18T02:27:49.984Z,91.50
2018-08-18T02:30:19.512Z,91.10
2018-08-18T02:32:47.930Z,90.70
2018-08-18T02:35:16.350Z,91.00
2018-08-18T02:37:44.715Z,91.10
2018-08-18T02:40:14.989Z,91.10
2018-08-18T02:42:43.383Z,92.80
2018-08-18T02:45:12.606Z,93.30
2018-08-18T02:47:41.059Z,93.70
2018-08-18T02:50:10.790Z,92.60
2018-08-18T02:52:39.190Z,92.30
2018-08-18T02:55:09.590Z,91.70
2018-08-18T02:57:44.614Z,91.10
2018-08-18T03:00:21.701Z,90.70
2018-08-18T03:02:50.176Z,91.30
2018-08-18T03:05:18.540Z,92.80
2018-08-18T03:07:50.985Z,93.10
2018-08-18T03:10:22.698Z,91.80
2018-08-18T03:12:51.686Z,92.00
2018-08-18T03:16:07.694Z,91.30
2018-08-18T03:18:46.059Z,91.00
2018-08-18T03:21:14.665Z,90.70
2018-08-18T03:23:54.523Z,91.30
2018-08-18T03:26:36.634Z,92.20
2018-08-18T03:29:05.076Z,92.10
2018-08-18T03:31:33.382Z,91.20
2018-08-18T03:34:01.775Z,90.80
2018-08-18T03:36:31.467Z,90.80
2018-08-18T03:39:00.118Z,91.10
2018-08-18T03:41:29.228Z,91.30
2018-08-18T03:43:58.055Z,92.10
2018-08-18T03:46:26.466Z,94.30
2018-08-18T03:48:55.159Z,94.80
2018-08-18T03:51:55.979Z,94.50
2018-08-18T03:54:24.378Z,93.00
2018-08-18T03:56:52.770Z,94.30
2018-08-18T03:59:21.190Z,94.70
2018-08-18T04:01:53.842Z,95.00
2018-08-18T04:04:23.296Z,95.30
2018-08-18T04:06:52.911Z,95.00
2018-08-18T04:09:30.098Z,95.10
2018-08-18T04:11:59.234Z,95.30
2018-08-18T04:14:30.690Z,95.80
2018-08-18T04:16:59.123Z,96.20
2018-08-18T04:19:27.591Z,96.10
2018-08-18T04:21:56.447Z,96.10
2018-08-18T04:24:33.755Z,95.80
2018-08-18T04:27:02.780Z,95.80
2018-08-18T04:29:31.183Z,95.70
2018-08-18T04:32:00.100Z,95.50
2018-08-18T04:34:28.495Z,95.30
2018-08-18T04:36:56.882Z,95.50
2018-08-18T04:39:25.273Z,95.10
2018-08-18T04:41:53.647Z,95.50
2018-08-18T04:44:22.090Z,95.50
2018-08-18T04:46:50.411Z,95.00
2018-08-18T04:49:18.795Z,93.90
2018-08-18T04:51:47.236Z,93.50
2018-08-18T04:54:15.635Z,93.90
2018-08-18T04:56:44.040Z,93.50
2018-08-18T04:59:12.487Z,93.00
2018-08-18T05:01:41.407Z,92.50
2018-08-18T05:04:10.914Z,92.60
2018-08-18T05:06:40.745Z,93.50
2018-08-18T05:09:10.295Z,93.30
2018-08-18T05:11:38.854Z,93.30
2018-08-18T05:14:07.406Z,93.30
2018-08-18T05:16:35.911Z,93.00
2018-08-18T05:19:04.332Z,92.70
2018-08-18T05:21:32.724Z,92.60
2018-08-18T05:24:32.351Z,92.80
2018-08-18T05:27:05.020Z,92.90
2018-08-18T05:29:33.988Z,94.60
2018-08-18T05:32:02.379Z,95.00
2018-08-18T05:34:30.771Z,95.10
2018-08-18T05:36:59.216Z,94.90
2018-08-18T05:39:27.582Z,94.80
2018-08-18T05:41:55.972Z,94.70
2018-08-18T05:44:24.331Z,94.70
2018-08-18T05:46:52.731Z,94.60
2018-08-18T05:49:21.136Z,95.20
2018-08-18T05:51:50.564Z,95.70
2018-08-18T05:54:24.255Z,95.90
2018-08-18T05:56:52.630Z,95.90
2018-08-18T05:59:21.003Z,95.50
2018-08-18T06:01:49.401Z,95.70
2018-08-18T06:04:19.008Z,95.50
2018-08-18T06:06:48.048Z,94.80
2018-08-18T06:09:17.659Z,94.30
2018-08-18T06:11:46.120Z,94.30
2018-08-18T06:14:14.979Z,93.80
2018-08-18T06:16:43.813Z,93.20
2018-08-18T06:19:12.212Z,92.60
2018-08-18T06:21:40.684Z,91.30
2018-08-18T06:24:09.078Z,90.30
2018-08-18T06:26:37.452Z,89.70
2018-08-18T06:29:05.995Z,89.20
2018-08-18T06:31:38.999Z,88.20
2018-08-18T06:34:07.374Z,88.10
2018-08-18T06:36:35.734Z,87.00
2018-08-18T06:39:05.279Z,87.10
2018-08-18T06:41:33.695Z,87.20
2018-08-18T06:44:02.007Z,87.00
2018-08-18T06:46:30.461Z,86.80
2018-08-18T06:48:58.828Z,86.40
2018-08-18T06:51:27.231Z,85.30
2018-08-18T06:53:55.595Z,84.20
2018-08-18T06:56:24.007Z,83.60
2018-08-18T06:58:52.432Z,83.60
2018-08-18T07:01:20.806Z,84.30
2018-08-18T07:03:49.200Z,84.10
2018-08-18T07:06:18.060Z,82.40
2018-08-18T07:08:52.557Z,80.80
2018-08-18T07:11:20.936Z,78.50
2018-08-18T07:13:49.805Z,79.30
2018-08-18T07:16:18.199Z,79.50
2018-08-18T07:18:46.554Z,78.90
2018-08-18T07:21:14.910Z,78.20
2018-08-18T07:23:46.251Z,77.70
2018-08-18T07:26:14.616Z,75.60
2018-08-18T07:28:43.066Z,75.50
2018-08-18T07:31:12.388Z,75.00
2018-08-18T07:33:40.818Z,74.80
2018-08-18T07:36:09.188Z,74.70
2018-08-18T07:38:37.572Z,74.70
2018-08-18T07:41:05.971Z,73.60
2018-08-18T07:43:35.670Z,74.40
2018-08-18T07:46:05.715Z,73.20
2018-08-18T07:48:34.140Z,71.90
2018-08-18T07:51:02.647Z,70.80
2018-08-18T07:53:31.133Z,70.40
2018-08-18T07:55:59.463Z,69.40
2018-08-18T07:58:27.867Z,69.70
2018-08-18T08:00:56.906Z,69.40
2018-08-18T08:03:25.353Z,70.40
2018-08-18T08:05:53.728Z,69.70
2018-08-18T08:08:22.174Z,70.10
2018-08-18T08:10:50.640Z,68.80
2018-08-18T08:13:19.023Z,67.70
2018-08-18T08:15:47.391Z,67.60
2018-08-18T08:18:16.233Z,69.00
2018-08-18T08:20:44.535Z,66.80
2018-08-18T08:23:13.015Z,68.10
2018-08-18T08:25:41.398Z,66.60
2018-08-18T08:28:09.768Z,65.80
2018-08-18T08:30:38.166Z,67.00
2018-08-18T08:33:06.634Z,65.80
2018-08-18T08:35:37.423Z,65.40
2018-08-18T08:38:05.878Z,65.90
2018-08-18T08:40:34.419Z,64.20
2018-08-18T08:43:03.072Z,65.40
2018-08-18T08:45:31.602Z,65.10
2018-08-18T08:48:00.047Z,64.20
2018-08-18T08:50:28.419Z,65.20
2018-08-18T08:52:57.620Z,65.10
2018-08-18T08:55:27.315Z,64.30
2018-08-18T08:57:55.719Z,64.30
2018-08-18T09:00:24.123Z,62.70
2018-08-18T09:02:52.468Z,62.50
2018-08-18T09:05:21.143Z,63.00
2018-08-18T09:07:49.537Z,59.90
2018-08-18T09:10:18.322Z,60.30
2018-08-18T09:12:46.651Z,60.70
2018-08-18T09:15:16.294Z,62.30
2018-08-18T09:17:44.679Z,61.80
2018-08-18T09:20:17.606Z,62.50
2018-08-18T09:22:54.539Z,63.00
2018-08-18T09:25:22.910Z,61.90
2018-08-18T09:28:02.123Z,62.70
2018-08-18T09:30:31.856Z,61.70
2018-08-18T09:33:02.777Z,60.90
2018-08-18T09:35:40.643Z,61.00
2018-08-18T09:38:09.006Z,59.30
2018-08-18T09:40:37.359Z,58.60
2018-08-18T09:43:09.936Z,57.80
2018-08-18T09:45:38.315Z,58.40
2018-08-18T09:48:06.964Z,60.10
2018-08-18T09:50:35.327Z,59.40
2018-08-18T09:53:03.723Z,59.70
2018-08-18T09:55:32.086Z,58.30
2018-08-18T09:58:00.458Z,58.00
2018-08-18T10:00:45.376Z,59.10
2018-08-18T10:03:13.718Z,59.20
2018-08-18T10:05:42.114Z,58.50
2018-08-18T10:08:10.517Z,58.40
2018-08-18T10:10:38.905Z,58.00
2018-08-18T10:13:07.271Z,57.70
2018-08-18T10:15:35.945Z,58.00
2018-08-18T10:18:04.327Z,58.30
2018-08-18T10:20:37.807Z,57.60
2018-08-18T10:23:06.191Z,57.20
2018-08-18T10:25:34.552Z,57.90
2018-08-18T10:28:02.891Z,58.00
2018-08-18T10:30:31.243Z,58.20
2018-08-18T10:33:06.087Z,58.40
2018-08-18T10:35:34.459Z,58.50
2018-08-18T10:38:05.151Z,57.90
2018-08-18T10:40:33.547Z,57.30
2018-08-18T10:43:01.902Z,58.70
2018-08-18T10:45:30.274Z,58.10
2018-08-18T10:47:58.599Z,57.80
2018-08-18T10:57:52.428Z,57.90
2018-08-18T11:00:22.827Z,58.00
2018-08-18T11:02:54.287Z,57.60
2018-08-18T11:05:23.531Z,57.10
2018-08-18T11:07:58.210Z,56.70
2018-08-18T11:10:28.431Z,56.90
2018-08-18T11:12:56.854Z,56.40
2018-08-18T11:15:25.360Z,56.70
2018-08-18T11:17:54.051Z,57.50
2018-08-18T11:20:23.632Z,57.00
2018-08-18T11:23:14.543Z,57.60
2018-08-18T11:25:45.150Z,56.40
2018-08-18T11:28:14.210Z,55.20
2018-08-18T11:30:42.682Z,54.90
2018-08-18T11:33:11.768Z,55.20
2018-08-18T11:35:40.114Z,54.90
2018-08-18T11:38:15.494Z,56.10
2018-08-18T11:40:44.087Z,57.10
2018-08-18T11:43:14.054Z,56.40
2018-08-18T11:45:43.355Z,55.50
2018-08-18T11:48:13.832Z,55.40
2018-08-18T11:50:42.628Z,56.10
2018-08-18T11:53:11.068Z,55.40
2018-08-18T11:55:39.634Z,56.10
2018-08-18T11:58:13.383Z,54.30
2018-08-18T12:00:46.236Z,54.60
2018-08-18T12:03:15.910Z,54.10
2018-08-18T12:05:47.301Z,54.90
2018-08-18T12:08:17.285Z,54.30
2018-08-18T12:10:46.145Z,53.80
2018-08-18T12:13:14.531Z,54.30
2018-08-18T12:16:15.519Z,55.00
2018-08-18T12:18:45.071Z,54.20
2018-08-18T12:21:13.867Z,54.80
2018-08-18T12:23:43.674Z,54.30
2018-08-18T12:26:16.376Z,53.90
2018-08-18T12:28:52.779Z,55.00
2018-08-18T12:31:23.493Z,54.30
2018-08-18T12:33:52.381Z,53.90
2018-08-18T12:36:20.946Z,53.90
2018-08-18T12:38:51.259Z,53.90
2018-08-18T12:41:19.632Z,53.60
2018-08-18T12:43:50.931Z,53.50
2018-08-18T12:46:20.547Z,51.80
2018-08-18T12:48:50.410Z,52.90
2018-08-18T12:51:19.615Z,54.10
2018-08-18T12:53:49.299Z,52.80
2018-08-18T12:56:19.690Z,53.60
2018-08-18T12:58:48.095Z,54.20
2018-08-18T13:01:36.259Z,54.40
2018-08-18T13:04:06.607Z,52.80
2018-08-18T13:06:39.175Z,52.90
2018-08-18T13:09:09.491Z,52.40
2018-08-18T13:11:37.951Z,51.90
2018-08-18T13:14:06.615Z,52.80
2018-08-18T13:16:36.127Z,51.90
2018-08-18T13:19:04.851Z,53.80
2018-08-18T13:21:33.188Z,53.40
2018-08-18T13:24:02.539Z,55.30
2018-08-18T13:26:31.256Z,55.10
2018-08-18T13:28:59.562Z,54.40
2018-08-18T13:31:32.540Z,55.30
2018-08-18T13:34:00.936Z,55.30
2018-08-18T13:36:29.692Z,54.60
2018-08-18T13:38:58.048Z,55.10
2018-08-18T13:41:26.402Z,55.30
2018-08-18T13:43:54.750Z,55.10
2018-08-18T13:46:34.560Z,55.90
2018-08-18T13:49:03.251Z,56.30
2018-08-18T13:51:32.431Z,56.20
2018-08-18T13:54:02.743Z,56.20
2018-08-18T13:56:31.608Z,56.50
2018-08-18T13:59:00.036Z,56.60
2018-08-18T14:01:40.092Z,56.50
2018-08-18T14:04:19.684Z,55.80
2018-08-18T14:06:54.349Z,56.60
2018-08-18T14:09:22.743Z,56.70
2018-08-18T14:11:54.723Z,56.40
2018-08-18T14:14:23.083Z,56.20
2018-08-18T14:16:51.477Z,56.90
2018-08-18T14:19:21.302Z,56.90
2018-08-18T14:21:53.878Z,56.60
2018-08-18T14:24:26.623Z,57.10
2018-08-18T14:27:01.308Z,56.60
2018-08-18T14:29:31.284Z,56.40
2018-08-18T14:32:00.259Z,56.40
2018-08-18T14:34:28.647Z,56.70
2018-08-18T14:37:01.160Z,56.30
2018-08-18T14:39:37.114Z,56.30
2018-08-18T14:42:05.819Z,56.00
2018-08-18T14:44:34.263Z,56.60
2018-08-18T14:47:02.739Z,57.00
2018-08-18T14:49:31.397Z,56.60
2018-08-18T14:51:59.795Z,56.60
2018-08-18T14:54:31.185Z,57.20
2018-08-18T14:57:01.031Z,57.20
2018-08-18T14:59:37.513Z,55.60
2018-08-18T15:02:07.379Z,55.80
2018-08-18T15:04:36.266Z,56.10
2018-08-18T15:07:04.699Z,56.10
2018-08-18T15:09:42.503Z,56.70
2018-08-18T15:12:10.880Z,56.70
2018-08-18T15:14:39.236Z,57.10
2018-08-18T15:17:07.635Z,56.90
2018-08-18T15:19:35.975Z,56.80
2018-08-18T15:22:06.911Z,57.10
2018-08-18T15:24:35.255Z,57.10
2018-08-18T15:27:03.650Z,56.90
2018-08-18T15:29:32.040Z,57.30
2018-08-18T15:32:00.449Z,57.20
2018-08-18T15:34:28.894Z,57.00
2018-08-18T15:36:57.254Z,57.40
2018-08-18T15:39:26.944Z,56.90
2018-08-18T15:41:57.408Z,56.70
2018-08-18T15:44:25.772Z,56.90
2018-08-18T15:46:54.168Z,56.70
2018-08-18T15:49:22.554Z,56.90
2018-08-18T15:51:50.962Z,57.40
2018-08-18T15:54:19.473Z,56.90
2018-08-18T15:56:47.822Z,57.30
2018-08-18T15:59:16.179Z,57.40
2018-08-18T16:01:44.543Z,57.10
2018-08-18T16:04:13.920Z,56.90
2018-08-18T16:06:42.294Z,56.20
2018-08-18T16:09:10.651Z,56.20
2018-08-18T16:11:39.051Z,56.50
2018-08-18T16:14:07.408Z,56.80
2018-08-18T16:16:51.579Z,57.10
2018-08-18T16:19:19.935Z,57.00
2018-08-18T16:21:48.327Z,56.60
2018-08-18T16:24:56.515Z,56.10
2018-08-18T16:27:24.937Z,57.20
2018-08-18T16:29:53.267Z,57.30
2018-08-18T16:32:26.372Z,57.10
2018-08-18T16:35:02.753Z,56.00
2018-08-18T16:37:31.987Z,56.10
2018-08-18T16:40:00.367Z,56.70
2018-08-18T16:42:29.179Z,56.80
2018-08-18T16:44:57.596Z,57.00
2018-08-18T16:47:25.959Z,57.00
2018-08-18T16:49:54.328Z,56.80
2018-08-18T16:52:22.685Z,56.90
2018-08-18T16:54:51.060Z,57.20
2018-08-18T16:57:19.441Z,57.60
2018-08-18T16:59:47.831Z,58.10
2018-08-18T17:02:31.148Z,57.20
2018-08-18T17:04:59.511Z,57.60
2018-08-18T17:07:28.175Z,57.60
2018-08-18T17:09:56.595Z,57.50
2018-08-18T17:12:28.951Z,58.00
2018-08-18T17:14:57.336Z,57.80
2018-08-18T17:17:26.075Z,57.70
2018-08-18T17:19:54.455Z,58.00
2018-08-18T17:22:22.827Z,57.80
2018-08-18T17:24:51.234Z,57.10
2018-08-18T17:27:19.589Z,57.10
2018-08-18T17:29:49.766Z,56.70
2018-08-18T17:32:18.123Z,57.50
2018-08-18T17:34:46.487Z,56.80
2018-08-18T17:37:14.835Z,57.20
2018-08-18T17:39:43.230Z,56.90
2018-08-18T17:42:11.603Z,56.90
2018-08-18T17:44:39.963Z,56.40
2018-08-18T17:47:09.595Z,56.40
2018-08-18T17:49:57.734Z,55.80
2018-08-18T17:52:27.310Z,56.10
2018-08-18T17:55:10.783Z,56.40
2018-08-18T17:57:39.575Z,56.00
2018-08-18T18:00:29.598Z,56.20
2018-08-18T18:03:00.569Z,56.20
2018-08-18T18:05:31.826Z,57.10
2018-08-18T18:08:02.174Z,56.50
2018-08-18T18:10:31.868Z,56.60
2018-08-18T18:13:00.427Z,56.30
2018-08-18T18:15:32.671Z,56.50
2018-08-18T18:18:01.102Z,56.30
2018-08-18T18:20:31.047Z,56.70
2018-08-18T18:22:59.459Z,57.40
2018-08-18T18:25:27.895Z,57.50
2018-08-18T18:27:56.338Z,57.30
2018-08-18T18:30:27.574Z,57.40
2018-08-18T18:32:56.463Z,57.40
2018-08-18T18:35:25.295Z,57.20
2018-08-18T18:37:56.362Z,57.80
2018-08-18T18:40:24.744Z,59.80
2018-08-18T18:42:53.099Z,61.00
2018-08-18T18:45:23.488Z,60.90
2018-08-18T18:47:51.871Z,60.40
2018-08-18T18:50:20.436Z,61.00
2018-08-18T18:52:48.871Z,60.90
2018-08-18T18:55:17.807Z,62.40
2018-08-18T18:58:01.715Z,62.40
2018-08-18T19:00:31.575Z,62.00
2018-08-18T19:02:59.960Z,62.00
2018-08-18T19:05:29.707Z,63.70
2018-08-18T19:08:11.207Z,64.60
2018-08-18T19:10:39.835Z,65.00
2018-08-18T19:13:09.051Z,65.50
2018-08-18T19:15:37.410Z,65.70
2018-08-18T19:18:06.468Z,66.00
2018-08-18T19:20:34.875Z,66.40
2018-08-18T19:23:09.779Z,66.80
2018-08-18T19:25:39.431Z,66.90
2018-08-18T19:28:11.222Z,66.50
2018-08-18T19:30:39.624Z,66.80
2018-08-18T19:33:08.303Z,67.50
2018-08-18T19:35:40.418Z,67.40
2018-08-18T19:38:08.964Z,66.40
2018-08-18T19:40:38.626Z,66.00
2018-08-18T19:43:13.066Z,66.80
2018-08-18T19:45:41.544Z,68.40
2018-08-18T19:48:10.919Z,68.70
2018-08-18T19:50:48.471Z,68.90
2018-08-18T19:53:17.365Z,69.20
2018-08-18T19:55:45.742Z,69.70
2018-08-18T19:58:14.186Z,69.90
2018-08-18T20:00:42.541Z,70.20
2018-08-18T20:03:12.287Z,70.40
2018-08-18T20:05:40.639Z,70.50
2018-08-18T20:08:09.204Z,70.40
2018-08-18T20:10:44.041Z,70.50
2018-08-18T20:13:13.371Z,70.00
2018-08-18T20:15:44.283Z,71.10
2018-08-18T20:18:12.717Z,70.90
2018-08-18T20:20:41.103Z,71.40
2018-08-18T20:23:09.559Z,71.50
2018-08-18T20:25:37.931Z,72.00
2018-08-18T20:28:06.380Z,72.00
2018-08-18T20:30:34.763Z,71.90
2018-08-18T20:33:03.324Z,72.10
2018-08-18T20:35:31.687Z,72.40
2018-08-18T20:38:00.172Z,72.20
2018-08-18T20:40:28.676Z,72.50
2018-08-18T20:42:57.515Z,72.60
2018-08-18T20:45:31.600Z,72.60
2018-08-18T20:48:00.247Z,73.20
2018-08-18T20:50:29.176Z,73.10
2018-08-18T20:53:02.996Z,73.20
2018-08-18T20:55:31.575Z,73.30
2018-08-18T20:57:59.939Z,73.90
2018-08-18T21:00:28.297Z,74.00
2018-08-18T21:02:56.703Z,74.00
2018-08-18T21:05:25.045Z,74.00
2018-08-18T21:07:53.411Z,74.20
2018-08-18T21:10:21.746Z,74.50
2018-08-18T21:12:50.193Z,74.80
2018-08-18T21:15:18.579Z,75.20
2018-08-18T21:17:46.966Z,75.70
2018-08-18T21:20:17.129Z,75.80
2018-08-18T21:22:45.487Z,76.00
2018-08-18T21:25:14.607Z,76.20
2018-08-18T21:27:43.131Z,76.40
2018-08-18T21:30:14.292Z,76.60
2018-08-18T21:32:42.689Z,76.90
2018-08-18T21:35:11.055Z,76.90
2018-08-18T21:37:39.415Z,76.80
2018-08-18T21:40:08.800Z,76.90
2018-08-18T21:42:37.174Z,77.20
2018-08-18T21:45:08.855Z,77.30
2018-08-18T21:47:37.226Z,77.80
2018-08-18T21:50:05.999Z,77.80
2018-08-18T21:52:34.346Z,77.90
2018-08-18T21:55:02.712Z,78.00
2018-08-18T21:57:36.583Z,78.10
2018-08-18T22:00:05.473Z,78.20
2018-08-18T22:02:40.879Z,78.30
2018-08-18T22:05:11.871Z,78.50
2018-08-18T22:07:45.633Z,78.50
2018-08-18T22:10:14.003Z,78.50
2018-08-18T22:12:42.377Z,78.70
2018-08-18T22:15:17.685Z,78.90
2018-08-18T22:17:46.952Z,79.10
2018-08-18T22:20:16.101Z,79.20
2018-08-18T22:22:44.488Z,79.70
2018-08-18T22:25:13.111Z,79.70
2018-08-18T22:27:41.478Z,79.70
2018-08-18T22:30:12.064Z,80.00
2018-08-18T22:32:41.795Z,80.00
2018-08-18T22:35:11.239Z,80.30
2018-08-18T22:37:39.995Z,80.20
2018-08-18T22:40:09.366Z,80.30
2018-08-18T22:42:37.859Z,80.60
2018-08-18T22:45:17.683Z,80.60
2018-08-18T22:47:46.301Z,81.00
2018-08-18T22:50:15.484Z,81.00
2018-08-18T22:52:47.314Z,81.20
2018-08-18T22:55:15.875Z,81.30
2018-08-18T22:57:50.980Z,81.40
2018-08-18T23:00:19.375Z,81.60
2018-08-18T23:02:47.780Z,81.70
2018-08-18T23:05:17.755Z,81.70
2018-08-18T23:07:47.475Z,81.90
2018-08-18T23:10:15.886Z,81.80
2018-08-18T23:12:44.258Z,81.90
2018-08-18T23:15:12.615Z,81.90
2018-08-18T23:17:40.978Z,82.10
2018-08-18T23:20:09.379Z,82.30
2018-08-18T23:22:54.438Z,82.20
2018-08-18T23:25:23.979Z,82.30
2018-08-18T23:27:52.675Z,82.40
2018-08-18T23:30:37.023Z,82.40
2018-08-18T23:33:07.065Z,82.40
2018-08-18T23:35:35.634Z,82.40
2018-08-18T23:38:04.246Z,82.50
2018-08-18T23:40:32.663Z,82.50
2018-08-18T23:43:01.033Z,82.70
2018-08-18T23:45:37.621Z,83.00
2018-08-18T23:48:08.492Z,83.10
2018-08-18T23:50:37.835Z,83.40
2018-08-18T23:53:10.504Z,83.50
2018-08-18T23:55:48.542Z,83.50
2018-08-18T23:58:17.083Z,83.40
